EW1810 Weather Reports


Display with metric or nautical units.
time (UTC)temp
F
wind
direction
speed
MPH
gust
MPH
rain 1hr
in
rain 24hr
in
rain mn
in
humidity
%
barometer
mb
20210803203019 89 314 2.0 5.0 0.00 0.00 0.00 28 1006.9
20210803200008 88 203 3.0 8.0 0.00 0.00 0.00 38 1007.3
20210803194506 87 255 2.0 6.0 0.00 0.00 0.00 41 1007.6
20210803193003 86 248 2.0 5.0 0.00 0.00 0.00 45 1007.7
20210803190228 84 210 1.0 5.0 0.00 0.00 0.00 50 1008.2
20210803184654 81 200 2.0 6.0 0.00 0.00 0.00 54 1008.4
20210803183233 80 197 2.0 5.0 0.00 0.00 0.00 55 1008.6
20210803180252 77 249 1.0 5.0 0.00 0.00 0.00 57 1008.9
20210803174703 76 273 1.0 5.0 0.00 0.00 0.00 58 1008.9
20210803173126 75 217 3.0 5.0 0.00 0.00 0.00 60 1009.0
20210803170143 76 183 0.0 2.0 0.00 0.00 0.00 55 1009.1
20210803164602 76 20 0.0 2.0 0.00 0.00 0.00 59 1009.1
20210803163045 73 338 0.0 2.0 0.00 0.00 0.00 63 1009.4
20210803160045 71 239 0.0 1.0 0.00 0.00 0.00 65 1009.8
20210803154540 68 242 0.0 0.0 0.00 0.00 0.00 70 1010.0
20210803153111 66 181 0.0 2.0 0.00 0.00 0.00 71 1010.1
20210803150027 67 64 0.0 0.0 0.00 0.00 0.00 67 1010.1
20210803144626 65 64 0.0 0.0 0.00 0.00 0.00 69 1010.1
20210803143031 63 58 0.0 0.0 0.00 0.00 0.00 73 1010.1
20210803134521 58 58 0.0 0.0 0.00 0.00 0.00 79 1010.2
20210803133022 58 61 0.0 0.0 0.00 0.00 0.00 80 1010.1
20210803130043 57 141 0.0 0.0 0.00 0.00 0.00 80 1009.8
20210803124555 57 85 0.0 0.0 0.00 0.00 0.00 80 1009.7
20210803123023 57 18 0.0 0.0 0.00 0.00 0.00 81 1009.6
20210803120147 58 40 0.0 0.0 0.00 0.00 0.00 81 1009.5
20210803114619 58 77 0.0 0.0 0.00 0.00 0.00 81 1009.4
20210803113100 57 52 0.0 0.0 0.00 0.00 0.00 82 1009.5
20210803111551 57 94 0.0 1.0 0.00 0.00 0.00 80 1009.4
20210803110108 58 77 0.0 0.0 0.00 0.00 0.00 81 1009.5
20210803104544 58 81 0.0 0.0 0.00 0.00 0.00 80 1009.4
20210803103043 59 94 0.0 0.0 0.00 0.00 0.00 80 1009.4
20210803101616 60 34 0.0 0.0 0.00 0.00 0.00 77 1009.3
20210803100029 60 94 0.0 0.0 0.00 0.00 0.00 75 1009.3
20210803094542 61 55 0.0 0.0 0.00 0.00 0.00 77 1009.2
20210803093050 62 85 0.0 0.0 0.00 0.00 0.00 74 1009.2
20210803091524 62 54 0.0 0.0 0.00 0.00 0.00 72 1009.2
20210803090023 63 54 0.0 0.0 0.00 0.00 0.00 69 1009.2
20210803084538 64 61 0.0 1.0 0.00 0.00 0.00 67 1009.1
20210803083022 64 37 0.0 1.0 0.00 0.00 0.00 62 1009.2
20210803081512 65 77 0.0 3.0 0.00 0.00 0.00 60 1009.2
20210803080005 66 65 2.0 3.0 0.00 0.00 0.00 59 1009.3
20210803074508 66 88 0.0 2.0 0.00 0.00 0.00 61 1009.3
20210803073023 67 77 0.0 4.0 0.00 0.00 0.00 58 1009.4
20210803071526 66 21 1.0 3.0 0.00 0.00 0.00 61 1009.2
20210803070010 68 84 2.0 6.0 0.00 0.00 0.00 53 1009.2
20210803064505 69 48 0.0 4.0 0.00 0.00 0.00 53 1009.1
20210803063002 70 73 2.0 4.0 0.00 0.00 0.00 48 1009.1
20210803061506 69 22 0.0 3.0 0.00 0.00 0.00 52 1009.2
20210803060137 69 117 2.0 5.0 0.00 0.00 0.00 50 1009.2
20210803054725 72 83 2.0 5.0 0.00 0.00 0.00 44 1009.1
20210803053013 72 38 4.0 8.0 0.00 0.00 0.00 45 1009.2
20210803051512 73 107 2.0 8.0 0.00 0.00 0.00 44 1009.1
20210803050018 73 148 3.0 6.0 0.00 0.00 0.00 44 1009.2
20210803044508 74 75 3.0 9.0 0.00 0.00 0.00 42 1009.3
20210803043313 73 114 4.0 10.0 0.00 0.00 0.00 45 1009.2
20210803041716 71 51 2.0 5.0 0.00 0.00 0.00 51 1009.4
20210803040142 71 98 1.0 5.0 0.00 0.00 0.00 52 1009.3
20210803034736 71 148 0.0 2.0 0.00 0.00 0.00 58 1009.1
20210803033157 72 61 2.0 3.0 0.00 0.00 0.00 57 1008.9
20210803031713 73 88 0.0 2.0 0.00 0.00 0.00 54 1008.6
20210803030244 75 82 2.0 3.0 0.00 0.00 0.00 54 1008.2
20210803024651 78 91 0.0 2.0 0.00 0.00 0.00 46 1008.2
20210803023209 82 98 0.0 1.0 0.00 0.00 0.00 42 1008.2
20210803021614 84 74 0.0 2.0 0.00 0.00 0.00 45 1008.2
20210803020402 87 159 0.0 3.0 0.00 0.00 0.00 41 1008.2
20210803014616 89 212 0.0 1.0 0.00 0.00 0.00 35 1008.3
20210803013222 90 255 0.0 2.0 0.00 0.00 0.00 30 1008.3
20210803011636 90 249 0.0 2.0 0.00 0.00 0.00 30 1008.4
20210803010129 90 238 1.0 4.0 0.00 0.00 0.00 32 1008.4
20210803004643 90 276 0.0 3.0 0.00 0.00 0.00 30 1008.4
20210803003246 90 260 2.0 6.0 0.00 0.00 0.00 30 1008.5
20210803001725 91 269 3.0 5.0 0.00 0.00 0.00 28 1008.5
20210803000147 91 306 3.0 6.0 0.00 0.01 0.00 27 1008.7
20210802234701 92 232 2.0 6.0 0.00 0.01 0.00 28 1008.8
20210802233057 91 281 2.0 9.0 0.00 0.01 0.00 28 1009.0
20210802231708 91 257 4.0 8.0 0.00 0.01 0.00 28 1009.1
20210802230112 91 275 3.0 8.0 0.00 0.16 0.00 28 1009.2
20210802224601 91 280 4.0 8.0 0.00 0.16 0.00 26 1009.2
20210802223103 90 319 5.0 10.0 0.00 0.16 0.00 29 1009.4
20210802221602 91 242 3.0 7.0 0.00 0.16 0.00 27 1009.6
20210802220039 89 221 1.0 8.0 0.00 0.82 0.00 30 1009.8
20210802214621 89 255 3.0 8.0 0.00 0.82 0.00 33 1009.9
20210802213119 88 225 5.0 9.0 0.00 0.82 0.00 32 1010.2
20210802211600 88 248 5.0 10.0 0.00 0.82 0.00 32 1010.4
20210802210058 87 242 1.0 5.0 0.00 0.97 0.00 44 1010.4
20210802204558 85 41 1.0 6.0 0.00 0.97 0.00 50 1010.6